createdAt,value
2018-06-07T00:00:30.702Z,21.75
2018-06-07T00:01:30.756Z,21.74
2018-06-07T00:02:30.809Z,21.73
2018-06-07T00:03:30.855Z,21.74
2018-06-07T00:04:30.776Z,21.76
2018-06-07T00:05:30.963Z,21.75
2018-06-07T00:06:30.626Z,21.75
2018-06-07T00:07:30.823Z,21.74
2018-06-07T00:08:30.719Z,21.73
2018-06-07T00:09:30.660Z,21.77
2018-06-07T00:10:30.846Z,21.73
2018-06-07T00:11:30.936Z,21.73
2018-06-07T00:12:30.722Z,21.74
2018-06-07T00:13:30.920Z,21.74
2018-06-07T00:14:30.647Z,21.74
2018-06-07T00:15:30.614Z,21.74
2018-06-07T00:16:30.705Z,21.75
2018-06-07T00:17:30.921Z,21.75
2018-06-07T00:18:30.772Z,21.76
2018-06-07T00:19:30.784Z,21.74
2018-06-07T00:20:30.649Z,21.74
2018-06-07T00:21:30.635Z,21.75
2018-06-07T00:22:30.802Z,21.74
2018-06-07T00:23:30.749Z,21.74
2018-06-07T00:24:30.716Z,21.74
2018-06-07T00:25:30.641Z,21.74
2018-06-07T00:26:30.618Z,21.74
2018-06-07T00:27:30.707Z,21.75
2018-06-07T00:28:30.647Z,21.75
2018-06-07T00:29:30.870Z,21.75
2018-06-07T00:30:30.823Z,21.76
2018-06-07T00:31:30.669Z,21.74
2018-06-07T00:32:30.916Z,21.74
2018-06-07T00:33:30.772Z,21.75
2018-06-07T00:34:30.654Z,21.73
2018-06-07T00:35:30.628Z,21.75
2018-06-07T00:36:30.712Z,21.73
2018-06-07T00:37:30.797Z,21.74
2018-06-07T00:38:30.874Z,21.76
2018-06-07T00:39:30.810Z,21.74
2018-06-07T00:40:30.813Z,21.72
2018-06-07T00:41:30.749Z,21.74
2018-06-07T00:42:30.887Z,21.75
2018-06-07T00:43:30.870Z,21.72
2018-06-07T00:44:30.705Z,21.73
2018-06-07T00:45:30.973Z,21.74
2018-06-07T00:46:30.769Z,21.74
2018-06-07T00:47:30.806Z,21.74
2018-06-07T00:48:30.794Z,21.73
2018-06-07T00:49:30.780Z,21.73
2018-06-07T00:50:30.934Z,21.74
2018-06-07T00:51:30.717Z,21.73
2018-06-07T00:52:30.827Z,21.74
2018-06-07T00:53:30.831Z,21.74
2018-06-07T00:54:30.711Z,21.74
2018-06-07T00:55:30.731Z,21.74
2018-06-07T00:56:30.678Z,21.74
2018-06-07T00:57:30.801Z,21.74
2018-06-07T00:58:30.807Z,21.72
2018-06-07T00:59:30.648Z,21.73
2018-06-07T01:00:30.644Z,21.74
2018-06-07T01:01:30.817Z,21.74
2018-06-07T01:02:30.875Z,21.72
2018-06-07T01:03:30.664Z,21.73
2018-06-07T01:04:30.587Z,21.74
2018-06-07T01:05:30.729Z,21.72
2018-06-07T01:06:30.751Z,21.74
2018-06-07T01:07:30.892Z,21.72
2018-06-07T01:08:30.841Z,21.72
2018-06-07T01:09:30.680Z,21.75
2018-06-07T01:10:30.801Z,21.74
2018-06-07T01:11:30.762Z,21.74
2018-06-07T01:12:30.654Z,21.7
2018-06-07T01:13:30.584Z,21.72
2018-06-07T01:14:30.789Z,21.7
2018-06-07T01:15:30.829Z,21.72
2018-06-07T01:16:30.741Z,21.73
2018-06-07T01:17:31.013Z,21.74
2018-06-07T01:18:30.931Z,21.72
2018-06-07T01:19:30.960Z,21.74
2018-06-07T01:20:30.908Z,21.74
2018-06-07T01:21:30.620Z,21.7
2018-06-07T01:22:30.762Z,21.75
2018-06-07T01:23:30.767Z,21.72
2018-06-07T01:24:30.602Z,21.72
2018-06-07T01:25:30.761Z,21.72
2018-06-07T01:26:30.915Z,21.74
2018-06-07T01:27:30.724Z,21.73
2018-06-07T01:28:30.644Z,21.74
2018-06-07T01:29:30.676Z,21.72
2018-06-07T01:30:30.794Z,21.72
2018-06-07T01:31:30.721Z,21.72
2018-06-07T01:32:30.701Z,21.73
2018-06-07T01:33:30.600Z,21.75
2018-06-07T01:34:30.645Z,21.7
2018-06-07T01:35:30.832Z,21.74
2018-06-07T01:36:30.665Z,21.73
2018-06-07T01:37:30.665Z,21.73
2018-06-07T01:38:30.629Z,21.7
2018-06-07T01:39:30.781Z,21.72
2018-06-07T01:40:30.837Z,21.73
2018-06-07T01:41:30.700Z,21.74
2018-06-07T01:42:30.605Z,21.72
2018-06-07T01:43:30.795Z,21.7
2018-06-07T01:44:30.579Z,21.73
2018-06-07T01:45:30.729Z,21.72
2018-06-07T01:46:30.745Z,21.7
2018-06-07T01:47:30.812Z,21.73
2018-06-07T01:48:30.727Z,21.72
2018-06-07T01:49:30.774Z,21.73
2018-06-07T01:50:30.719Z,21.73
2018-06-07T01:51:30.620Z,21.73
2018-06-07T01:52:30.723Z,21.72
2018-06-07T01:53:30.627Z,21.72
2018-06-07T01:54:30.841Z,21.7
2018-06-07T01:55:30.719Z,21.72
2018-06-07T01:56:30.778Z,21.72
2018-06-07T01:57:30.753Z,21.73
2018-06-07T01:58:30.688Z,21.72
2018-06-07T01:59:30.723Z,21.7
2018-06-07T02:00:30.636Z,21.72
2018-06-07T02:01:30.734Z,21.72
2018-06-07T02:02:30.655Z,21.7
2018-06-07T02:03:30.856Z,21.7
2018-06-07T02:04:30.605Z,21.7
2018-06-07T02:05:30.673Z,21.73
2018-06-07T02:06:30.849Z,21.7
2018-06-07T02:07:30.899Z,21.72
2018-06-07T02:08:30.580Z,21.72
2018-06-07T02:09:30.822Z,21.7
2018-06-07T02:10:30.801Z,21.7
2018-06-07T02:11:30.695Z,21.72
2018-06-07T02:12:30.760Z,21.7
2018-06-07T02:13:30.624Z,21.73
2018-06-07T02:14:30.691Z,21.73
2018-06-07T02:15:30.932Z,21.72
2018-06-07T02:16:30.585Z,21.72
2018-06-07T02:17:30.821Z,21.73
2018-06-07T02:18:30.699Z,21.7
2018-06-07T02:19:30.683Z,21.7
2018-06-07T02:20:30.825Z,21.7
2018-06-07T02:21:30.783Z,21.72
2018-06-07T02:22:30.599Z,21.7
2018-06-07T02:23:30.803Z,21.7
2018-06-07T02:24:30.706Z,21.7
2018-06-07T02:25:30.829Z,21.7
2018-06-07T02:26:30.884Z,21.7
2018-06-07T02:27:30.715Z,21.7
2018-06-07T02:28:30.756Z,21.7
2018-06-07T02:29:30.687Z,21.7
2018-06-07T02:30:30.753Z,21.73
2018-06-07T02:31:30.871Z,21.73
2018-06-07T02:32:30.700Z,21.69
2018-06-07T02:33:40.711Z,21.72
2018-06-07T02:34:30.791Z,21.73
2018-06-07T02:35:30.635Z,21.72
2018-06-07T02:36:30.696Z,21.72
2018-06-07T02:37:30.785Z,21.7
2018-06-07T02:38:30.559Z,21.7
2018-06-07T02:39:30.779Z,21.73
2018-06-07T02:40:30.604Z,21.72
2018-06-07T02:41:30.792Z,21.7
2018-06-07T02:42:30.720Z,21.72
2018-06-07T02:43:30.675Z,21.72
2018-06-07T02:44:30.763Z,21.69
2018-06-07T02:45:30.776Z,21.68
2018-06-07T02:46:30.687Z,21.72
2018-06-07T02:47:30.593Z,21.7
2018-06-07T02:48:30.614Z,21.7
2018-06-07T02:49:30.596Z,21.73
2018-06-07T02:50:30.835Z,21.68
2018-06-07T02:51:30.777Z,21.74
2018-06-07T02:52:30.699Z,21.7
2018-06-07T02:53:30.711Z,21.72
2018-06-07T02:54:30.654Z,21.7
2018-06-07T02:55:30.592Z,21.69
2018-06-07T02:56:30.772Z,21.69
2018-06-07T02:57:30.722Z,21.69
2018-06-07T02:58:30.475Z,21.72
2018-06-07T02:59:30.776Z,21.73
2018-06-07T03:00:30.796Z,21.7
2018-06-07T03:01:30.654Z,21.69
2018-06-07T03:02:30.770Z,21.72
2018-06-07T03:03:30.651Z,21.7
2018-06-07T03:04:30.803Z,21.72
2018-06-07T03:05:30.713Z,21.68
2018-06-07T03:06:30.794Z,21.72
2018-06-07T03:07:30.669Z,21.7
2018-06-07T03:08:30.661Z,21.7
2018-06-07T03:09:30.835Z,21.69
2018-06-07T03:10:30.715Z,21.7
2018-06-07T03:11:30.695Z,21.7
2018-06-07T03:12:30.793Z,21.7
2018-06-07T03:13:30.716Z,21.7
2018-06-07T03:14:30.775Z,21.68
2018-06-07T03:15:30.857Z,21.7
2018-06-07T03:16:30.580Z,21.69
2018-06-07T03:17:30.795Z,21.69
2018-06-07T03:18:30.744Z,21.69
2018-06-07T03:19:30.652Z,21.7
2018-06-07T03:20:30.468Z,21.7
2018-06-07T03:21:30.754Z,21.68
2018-06-07T03:22:30.657Z,21.72
2018-06-07T03:23:30.604Z,21.69
2018-06-07T03:24:30.824Z,21.7
2018-06-07T03:25:30.716Z,21.69
2018-06-07T03:26:30.909Z,21.69
2018-06-07T03:27:30.664Z,21.7
2018-06-07T03:28:30.908Z,21.69
2018-06-07T03:29:30.571Z,21.69
2018-06-07T03:30:30.711Z,21.69
2018-06-07T03:31:31.159Z,21.69
2018-06-07T03:32:30.778Z,21.7
2018-06-07T03:33:30.798Z,21.72
2018-06-07T03:34:30.649Z,21.69
2018-06-07T03:35:30.781Z,21.69
2018-06-07T03:36:30.845Z,21.7
2018-06-07T03:37:30.816Z,21.69
2018-06-07T03:38:30.599Z,21.67
2018-06-07T03:39:30.692Z,21.7
2018-06-07T03:40:30.638Z,21.69
2018-06-07T03:41:30.616Z,21.7
2018-06-07T03:42:30.803Z,21.7
2018-06-07T03:43:30.750Z,21.69
2018-06-07T03:44:30.572Z,21.67
2018-06-07T03:45:30.551Z,21.68
2018-06-07T03:46:30.667Z,21.7
2018-06-07T03:47:30.597Z,21.69
2018-06-07T03:48:30.678Z,21.69
2018-06-07T03:49:30.534Z,21.69
2018-06-07T03:50:30.560Z,21.73
2018-06-07T03:51:30.709Z,21.7
2018-06-07T03:52:30.658Z,21.7
2018-06-07T03:53:30.791Z,21.7
2018-06-07T03:54:30.666Z,21.68
2018-06-07T03:55:30.854Z,21.69
2018-06-07T03:56:30.738Z,21.68
2018-06-07T03:57:30.659Z,21.69
2018-06-07T03:58:30.729Z,21.68
2018-06-07T03:59:30.637Z,21.68
2018-06-07T04:00:40.612Z,21.69
2018-06-07T04:01:30.766Z,21.69
2018-06-07T04:02:30.537Z,21.69
2018-06-07T04:03:30.805Z,21.69
2018-06-07T04:04:30.811Z,21.69
2018-06-07T04:05:30.537Z,21.69
2018-06-07T04:06:30.613Z,21.68
2018-06-07T04:07:30.813Z,21.68
2018-06-07T04:08:30.585Z,21.7
2018-06-07T04:09:30.604Z,21.68
2018-06-07T04:10:30.544Z,21.7
2018-06-07T04:11:30.734Z,21.69
2018-06-07T04:12:30.630Z,21.7
2018-06-07T04:13:30.641Z,21.67
2018-06-07T04:14:30.493Z,21.7
2018-06-07T04:15:30.687Z,21.7
2018-06-07T04:16:30.695Z,21.69
2018-06-07T04:17:30.755Z,21.66
2018-06-07T04:18:30.779Z,21.68
2018-06-07T04:19:30.728Z,21.7
2018-06-07T04:20:30.785Z,21.7
2018-06-07T04:21:30.543Z,21.69
2018-06-07T04:22:30.710Z,21.7
2018-06-07T04:23:40.591Z,21.7
2018-06-07T04:24:30.878Z,21.66
2018-06-07T04:25:30.696Z,21.69
2018-06-07T04:26:30.770Z,21.67
2018-06-07T04:27:30.566Z,21.67
2018-06-07T04:28:30.513Z,21.7
2018-06-07T04:29:30.657Z,21.68
2018-06-07T04:30:30.719Z,21.68
2018-06-07T04:31:30.596Z,21.68
2018-06-07T04:32:30.664Z,21.7
2018-06-07T04:33:30.759Z,21.67
2018-06-07T04:34:30.721Z,21.68
2018-06-07T04:35:30.820Z,21.69
2018-06-07T04:36:30.729Z,21.69
2018-06-07T04:37:30.545Z,21.69
2018-06-07T04:38:30.749Z,21.7
2018-06-07T04:39:30.774Z,21.68
2018-06-07T04:40:30.820Z,21.69
2018-06-07T04:41:30.586Z,21.68
2018-06-07T04:42:30.743Z,21.7
2018-06-07T04:43:30.627Z,21.7
2018-06-07T04:44:30.779Z,21.67
2018-06-07T04:45:30.646Z,21.69
2018-06-07T04:46:30.628Z,21.67
2018-06-07T04:47:30.754Z,21.68
2018-06-07T04:48:30.652Z,21.69
2018-06-07T04:49:30.573Z,21.69
2018-06-07T04:50:30.739Z,21.66
2018-06-07T04:51:30.614Z,21.68
2018-06-07T04:52:30.738Z,21.69
2018-06-07T04:53:30.732Z,21.67
2018-06-07T04:54:30.724Z,21.67
2018-06-07T04:55:30.775Z,21.68
2018-06-07T04:56:30.785Z,21.68
2018-06-07T04:57:30.522Z,21.69
2018-06-07T04:58:30.657Z,21.67
2018-06-07T04:59:30.735Z,21.68
2018-06-07T05:00:30.674Z,21.67
2018-06-07T05:01:30.640Z,21.7
2018-06-07T05:02:30.727Z,21.67
2018-06-07T05:03:30.858Z,21.66
2018-06-07T05:04:30.614Z,21.7
2018-06-07T05:05:30.700Z,21.66
2018-06-07T05:06:30.979Z,21.69
2018-06-07T05:07:30.790Z,21.67
2018-06-07T05:08:30.494Z,21.69
2018-06-07T05:09:30.751Z,21.74
2018-06-07T05:10:30.718Z,21.77
2018-06-07T05:11:30.645Z,21.72
2018-06-07T05:12:30.547Z,21.7
2018-06-07T05:13:30.695Z,21.74
2018-06-07T05:14:30.550Z,21.72
2018-06-07T05:15:30.686Z,21.69
2018-06-07T05:16:30.570Z,21.7
2018-06-07T05:17:30.814Z,21.69
2018-06-07T05:18:30.640Z,21.69
2018-06-07T05:19:30.566Z,21.69
2018-06-07T05:20:30.615Z,21.68
2018-06-07T05:21:30.775Z,21.72
2018-06-07T05:22:30.659Z,21.7
2018-06-07T05:23:30.737Z,21.69
2018-06-07T05:24:30.563Z,21.68
2018-06-07T05:25:30.668Z,21.68
2018-06-07T05:26:30.744Z,21.69
2018-06-07T05:27:30.705Z,21.69
2018-06-07T05:28:30.655Z,21.68
2018-06-07T05:29:30.669Z,21.68
2018-06-07T05:30:31.000Z,21.68
2018-06-07T05:31:30.727Z,21.69
2018-06-07T05:32:30.823Z,21.69
2018-06-07T05:33:30.678Z,21.7
2018-06-07T05:34:30.728Z,21.7
2018-06-07T05:35:30.729Z,21.69
2018-06-07T05:36:30.747Z,21.69
2018-06-07T05:37:30.577Z,21.69
2018-06-07T05:38:30.737Z,21.69
2018-06-07T05:39:30.773Z,21.69
2018-06-07T05:40:30.666Z,21.7
2018-06-07T05:41:30.520Z,21.69
2018-06-07T05:42:30.654Z,21.69
2018-06-07T05:43:30.745Z,21.69
2018-06-07T05:44:31.095Z,21.68
2018-06-07T05:45:30.800Z,21.68
2018-06-07T05:46:30.783Z,21.67
2018-06-07T05:47:30.646Z,21.68
2018-06-07T05:48:30.558Z,21.67
2018-06-07T05:49:30.731Z,21.69
2018-06-07T05:50:30.755Z,21.68
2018-06-07T05:51:30.714Z,21.69
2018-06-07T05:52:30.476Z,21.7
2018-06-07T05:53:30.667Z,21.68
2018-06-07T05:54:30.541Z,21.67
2018-06-07T05:55:30.708Z,21.69
2018-06-07T05:56:30.771Z,21.69
2018-06-07T05:57:30.796Z,21.68
2018-06-07T05:58:30.768Z,21.67
2018-06-07T05:59:30.764Z,21.68
2018-06-07T06:00:31.050Z,21.68
2018-06-07T06:01:30.540Z,21.68
2018-06-07T06:02:30.589Z,21.67
2018-06-07T06:03:30.882Z,21.65
2018-06-07T06:04:30.755Z,21.68
2018-06-07T06:05:30.962Z,21.67
2018-06-07T06:06:30.728Z,21.68
2018-06-07T06:07:30.703Z,21.68
2018-06-07T06:08:30.812Z,21.68
2018-06-07T06:09:31.060Z,21.69
2018-06-07T06:10:30.656Z,21.7
2018-06-07T06:11:30.647Z,21.67
2018-06-07T06:12:30.586Z,21.68
2018-06-07T06:13:30.688Z,21.68
2018-06-07T06:14:30.703Z,21.66
2018-06-07T06:15:30.816Z,21.67
2018-06-07T06:16:30.800Z,21.67
2018-06-07T06:17:30.884Z,21.67
2018-06-07T06:18:30.777Z,21.68
2018-06-07T06:19:30.770Z,21.68
2018-06-07T06:20:30.674Z,21.66
2018-06-07T06:21:30.597Z,21.66
2018-06-07T06:22:30.726Z,21.67
2018-06-07T06:23:30.655Z,21.67
2018-06-07T06:24:30.554Z,21.67
2018-06-07T06:25:30.724Z,21.69
2018-06-07T06:26:30.804Z,21.68
2018-06-07T06:27:30.516Z,21.68
2018-06-07T06:28:30.558Z,21.69
2018-06-07T06:29:30.794Z,21.73
2018-06-07T06:30:30.544Z,21.76
2018-06-07T06:31:30.704Z,21.75
2018-06-07T06:32:30.733Z,21.74
2018-06-07T06:33:30.770Z,21.76
2018-06-07T06:34:30.520Z,21.75
2018-06-07T06:35:30.764Z,21.74
2018-06-07T06:36:30.562Z,21.75
2018-06-07T06:37:30.861Z,21.76
2018-06-07T06:38:30.618Z,21.78
2018-06-07T06:39:30.695Z,21.78
2018-06-07T06:40:30.680Z,21.76
2018-06-07T06:41:30.540Z,21.78
2018-06-07T06:42:30.762Z,21.76
2018-06-07T06:43:30.525Z,21.79
2018-06-07T06:44:30.586Z,21.76
2018-06-07T06:45:30.714Z,21.79
2018-06-07T06:46:30.657Z,21.75
2018-06-07T06:47:30.755Z,21.75
2018-06-07T06:48:30.698Z,21.76
2018-06-07T06:49:31.248Z,21.73
2018-06-07T06:50:30.674Z,21.74
2018-06-07T06:51:30.615Z,21.73
2018-06-07T06:52:30.511Z,21.73
2018-06-07T06:53:30.735Z,21.74
2018-06-07T06:54:31.016Z,21.74
2018-06-07T06:55:30.742Z,21.74
2018-06-07T06:56:30.749Z,21.72
2018-06-07T06:57:30.712Z,21.73
2018-06-07T06:58:30.771Z,21.73
2018-06-07T06:59:30.777Z,21.74
2018-06-07T07:00:30.715Z,21.74
2018-06-07T07:01:30.550Z,21.73
2018-06-07T07:02:30.550Z,21.73
2018-06-07T07:03:30.797Z,21.73
2018-06-07T07:04:30.721Z,21.74
2018-06-07T07:05:30.537Z,21.74
2018-06-07T07:06:30.747Z,21.73
2018-06-07T07:07:30.769Z,21.72
2018-06-07T07:08:30.804Z,21.72
2018-06-07T07:09:30.561Z,21.7
2018-06-07T07:10:30.486Z,21.73
2018-06-07T07:11:30.621Z,21.73
2018-06-07T07:12:30.733Z,21.7
2018-06-07T07:13:30.768Z,21.73
2018-06-07T07:14:30.693Z,21.72
2018-06-07T07:15:30.856Z,21.72
2018-06-07T07:16:30.660Z,21.7
2018-06-07T07:17:30.759Z,21.7
2018-06-07T07:18:30.807Z,21.74
2018-06-07T07:19:30.558Z,21.74
2018-06-07T07:20:30.580Z,21.7
2018-06-07T07:21:30.697Z,21.74
2018-06-07T07:22:30.756Z,21.72
2018-06-07T07:23:30.918Z,21.73
2018-06-07T07:24:30.582Z,21.73
2018-06-07T07:25:30.762Z,21.73
2018-06-07T07:26:30.548Z,21.73
2018-06-07T07:27:30.684Z,21.74
2018-06-07T07:28:30.467Z,21.74
2018-06-07T07:29:30.768Z,21.76
2018-06-07T07:30:30.667Z,21.73
2018-06-07T07:31:30.853Z,21.75
2018-06-07T07:32:30.712Z,21.75
2018-06-07T07:33:30.766Z,21.75
2018-06-07T07:34:30.824Z,21.73
2018-06-07T07:35:30.529Z,21.73
2018-06-07T07:36:30.689Z,21.73
2018-06-07T07:37:30.542Z,21.73
2018-06-07T07:38:30.604Z,21.74
2018-06-07T07:39:30.508Z,21.75
2018-06-07T07:40:30.511Z,21.74
2018-06-07T07:41:30.522Z,21.73
2018-06-07T07:42:30.746Z,21.74
2018-06-07T07:43:30.590Z,21.73
2018-06-07T07:44:30.714Z,21.75
2018-06-07T07:45:30.621Z,21.74
2018-06-07T07:46:30.704Z,21.73
2018-06-07T07:47:30.633Z,21.74
2018-06-07T07:48:30.777Z,21.74
2018-06-07T07:49:30.710Z,21.74
2018-06-07T07:50:30.554Z,21.73
2018-06-07T07:51:30.714Z,21.74
2018-06-07T07:52:30.524Z,21.73
2018-06-07T07:53:30.551Z,21.74
2018-06-07T07:54:30.726Z,21.74
2018-06-07T07:55:30.743Z,21.75
2018-06-07T07:56:30.631Z,21.73
2018-06-07T07:57:30.765Z,21.76
2018-06-07T07:58:30.657Z,21.75
2018-06-07T07:59:30.753Z,21.74
2018-06-07T08:00:30.537Z,21.73
2018-06-07T08:01:30.504Z,21.74
2018-06-07T08:02:30.744Z,21.74
2018-06-07T08:03:30.763Z,21.72
2018-06-07T08:04:30.668Z,21.75
2018-06-07T08:05:30.772Z,21.74
2018-06-07T08:06:30.777Z,21.75
2018-06-07T08:07:30.518Z,21.75
2018-06-07T08:08:30.640Z,21.75
2018-06-07T08:09:30.780Z,21.74
2018-06-07T08:10:30.778Z,21.74
2018-06-07T08:11:30.697Z,21.75
2018-06-07T08:12:30.751Z,21.74
2018-06-07T08:13:30.786Z,21.74
2018-06-07T08:14:30.767Z,21.73
2018-06-07T08:15:30.736Z,21.74
2018-06-07T08:16:30.822Z,21.74
2018-06-07T08:17:30.546Z,21.76
2018-06-07T08:18:30.728Z,21.74
2018-06-07T08:19:30.848Z,21.74
2018-06-07T08:20:30.753Z,21.75
2018-06-07T08:21:30.739Z,21.74
2018-06-07T08:22:30.699Z,21.73
2018-06-07T08:23:30.566Z,21.74
2018-06-07T08:24:30.517Z,21.74
2018-06-07T08:25:30.741Z,21.77
2018-06-07T08:26:30.576Z,21.73
2018-06-07T08:27:30.575Z,21.72
2018-06-07T08:28:30.459Z,21.74
2018-06-07T08:29:30.885Z,21.75
2018-06-07T08:30:30.509Z,21.76
2018-06-07T08:31:30.529Z,21.74
2018-06-07T08:32:30.544Z,21.75
2018-06-07T08:33:30.860Z,21.74
2018-06-07T08:34:30.609Z,21.74
2018-06-07T08:35:30.628Z,21.76
2018-06-07T08:36:30.650Z,21.75
2018-06-07T08:37:30.671Z,21.75
2018-06-07T08:38:31.027Z,21.74
2018-06-07T08:39:31.010Z,21.74
2018-06-07T08:40:30.746Z,21.74
2018-06-07T08:41:30.742Z,21.74
2018-06-07T08:42:30.523Z,21.73
2018-06-07T08:43:30.732Z,21.76
2018-06-07T08:44:30.857Z,21.74
2018-06-07T08:45:30.753Z,21.74
2018-06-07T08:46:30.734Z,21.72
2018-06-07T08:47:30.389Z,21.73
2018-06-07T08:48:30.610Z,21.72
2018-06-07T08:49:30.576Z,21.73
2018-06-07T08:50:30.524Z,21.74
2018-06-07T08:51:30.536Z,21.74
2018-06-07T08:52:30.575Z,21.74
2018-06-07T08:53:30.598Z,21.74
2018-06-07T08:54:30.738Z,21.74
2018-06-07T08:55:30.589Z,21.74
2018-06-07T08:56:30.618Z,21.74
2018-06-07T08:57:31.077Z,21.73
2018-06-07T08:58:30.508Z,21.76
2018-06-07T08:59:30.645Z,21.73
2018-06-07T09:00:30.977Z,21.74
2018-06-07T09:01:30.640Z,21.73
2018-06-07T09:02:30.572Z,21.74
2018-06-07T09:03:30.759Z,21.72
2018-06-07T09:04:30.702Z,21.75
2018-06-07T09:05:30.734Z,21.74
2018-06-07T09:06:30.471Z,21.74
2018-06-07T09:07:30.582Z,21.73
2018-06-07T09:08:30.558Z,21.76
2018-06-07T09:09:30.544Z,21.72
2018-06-07T09:10:30.673Z,21.74
2018-06-07T09:11:30.780Z,21.73
2018-06-07T09:12:30.516Z,21.74
2018-06-07T09:13:30.568Z,21.74
2018-06-07T09:14:30.671Z,21.74
2018-06-07T09:15:30.664Z,21.74
2018-06-07T09:16:30.730Z,21.73
2018-06-07T09:17:30.694Z,21.74
2018-06-07T09:18:30.556Z,21.74
2018-06-07T09:19:31.091Z,21.75
2018-06-07T09:20:30.454Z,21.74
2018-06-07T09:21:30.819Z,21.74
2018-06-07T09:22:30.514Z,21.73
2018-06-07T09:23:30.659Z,21.74
2018-06-07T09:24:30.947Z,21.72
2018-06-07T09:25:30.449Z,21.74
2018-06-07T09:26:30.698Z,21.74
2018-06-07T09:27:30.747Z,21.75
2018-06-07T09:28:30.854Z,21.74
2018-06-07T09:29:30.580Z,21.75
2018-06-07T09:30:30.544Z,21.76
2018-06-07T09:31:40.576Z,21.74
2018-06-07T09:32:30.438Z,21.73
2018-06-07T09:33:30.565Z,21.74
2018-06-07T09:34:31.146Z,21.72
2018-06-07T09:35:30.825Z,21.73
2018-06-07T09:36:30.495Z,21.74
2018-06-07T09:37:30.482Z,21.75
2018-06-07T09:38:30.792Z,21.74
2018-06-07T09:39:30.711Z,21.75
2018-06-07T09:40:30.566Z,21.74
2018-06-07T09:41:30.734Z,21.75
2018-06-07T09:42:30.721Z,21.74
2018-06-07T09:43:30.667Z,21.74
2018-06-07T09:44:30.693Z,21.74
2018-06-07T09:45:30.502Z,21.75
2018-06-07T09:46:30.510Z,21.74
2018-06-07T09:47:30.559Z,21.73
2018-06-07T09:48:30.487Z,21.74
2018-06-07T09:49:30.656Z,21.74
2018-06-07T09:50:30.644Z,21.74
2018-06-07T09:51:30.737Z,21.74
2018-06-07T09:52:30.556Z,21.75
2018-06-07T09:53:30.532Z,21.75
2018-06-07T09:54:30.484Z,21.77
2018-06-07T09:55:30.564Z,21.75
2018-06-07T09:56:30.561Z,21.73
2018-06-07T09:57:30.584Z,21.74
2018-06-07T09:58:30.701Z,21.74
2018-06-07T09:59:30.571Z,21.74
2018-06-07T10:00:30.618Z,21.74
2018-06-07T10:01:30.707Z,21.74
2018-06-07T10:02:30.770Z,21.74
2018-06-07T10:03:30.477Z,21.73
2018-06-07T10:04:30.515Z,21.75
2018-06-07T10:05:30.459Z,21.73
2018-06-07T10:06:30.548Z,21.73
2018-06-07T10:07:30.689Z,21.73
2018-06-07T10:08:30.492Z,21.72
2018-06-07T10:09:30.731Z,21.74
2018-06-07T10:10:30.646Z,21.73
2018-06-07T10:11:30.733Z,21.74
2018-06-07T10:12:30.564Z,21.76
2018-06-07T10:13:30.579Z,21.73
2018-06-07T10:14:30.496Z,21.73
2018-06-07T10:15:30.697Z,21.73
2018-06-07T10:16:30.565Z,21.74
2018-06-07T10:17:30.504Z,21.75
2018-06-07T10:18:30.730Z,21.74
2018-06-07T10:19:30.678Z,21.75
2018-06-07T10:20:30.529Z,21.75
2018-06-07T10:21:30.725Z,21.74
2018-06-07T10:22:30.827Z,21.74
2018-06-07T10:23:30.527Z,21.75
2018-06-07T10:24:30.467Z,21.75
2018-06-07T10:25:30.371Z,21.73
2018-06-07T10:26:30.725Z,21.74
2018-06-07T10:27:30.740Z,21.74
2018-06-07T10:28:30.464Z,21.74
2018-06-07T10:29:30.691Z,21.74
2018-06-07T10:30:30.829Z,21.77
2018-06-07T10:31:30.520Z,21.8
2018-06-07T10:32:30.635Z,21.8
2018-06-07T10:33:30.750Z,21.81
2018-06-07T10:34:30.626Z,21.82
2018-06-07T10:35:30.722Z,21.78
2018-06-07T10:36:30.376Z,21.79
2018-06-07T10:37:30.741Z,21.76
2018-06-07T10:38:30.493Z,21.77
2018-06-07T10:39:30.658Z,21.74
2018-06-07T10:40:30.781Z,21.76
2018-06-07T10:41:30.796Z,21.75
2018-06-07T10:42:30.527Z,21.82
2018-06-07T10:43:30.745Z,21.82
2018-06-07T10:44:30.734Z,21.81
2018-06-07T10:45:30.595Z,21.82
2018-06-07T10:46:30.557Z,21.82
2018-06-07T10:47:30.824Z,21.83
2018-06-07T10:48:30.510Z,21.84
2018-06-07T10:49:30.650Z,21.83
2018-06-07T10:50:30.833Z,21.85
2018-06-07T10:51:30.762Z,21.87
2018-06-07T10:52:30.406Z,21.89
2018-06-07T10:53:30.671Z,21.87
2018-06-07T10:54:30.748Z,21.87
2018-06-07T10:55:30.509Z,21.84
2018-06-07T10:56:30.368Z,21.88
2018-06-07T10:57:30.506Z,21.88
2018-06-07T10:58:30.564Z,21.88
2018-06-07T10:59:30.504Z,21.85
2018-06-07T11:00:30.482Z,21.85
2018-06-07T11:01:30.801Z,21.83
2018-06-07T11:02:30.774Z,21.82
2018-06-07T11:03:30.530Z,21.84
2018-06-07T11:04:31.537Z,21.84
2018-06-07T11:05:30.531Z,21.83
2018-06-07T11:06:30.441Z,21.83
2018-06-07T11:07:30.587Z,21.82
2018-06-07T11:08:30.669Z,21.82
2018-06-07T11:09:30.698Z,21.81
2018-06-07T11:10:32.969Z,21.8
2018-06-07T11:11:30.438Z,21.8
2018-06-07T11:12:30.523Z,21.8
2018-06-07T11:13:30.516Z,21.8
2018-06-07T11:14:30.557Z,21.81
2018-06-07T11:15:30.804Z,21.8
2018-06-07T11:16:30.636Z,21.77
2018-06-07T11:17:30.546Z,21.81
2018-06-07T11:18:30.757Z,21.77
2018-06-07T11:19:30.688Z,21.78
2018-06-07T11:20:30.411Z,21.79
2018-06-07T11:21:30.483Z,21.77
2018-06-07T11:22:30.456Z,21.78
2018-06-07T11:23:30.426Z,21.78
2018-06-07T11:24:30.546Z,21.79
2018-06-07T11:25:30.602Z,21.78
2018-06-07T11:26:30.723Z,21.78
2018-06-07T11:27:30.788Z,21.77
2018-06-07T11:28:30.872Z,21.77
2018-06-07T11:29:30.727Z,21.77
2018-06-07T11:30:30.531Z,21.78
2018-06-07T11:31:30.965Z,21.77
2018-06-07T11:32:30.605Z,21.77
2018-06-07T11:33:30.555Z,21.77
2018-06-07T11:34:30.465Z,21.77
2018-06-07T11:35:30.715Z,21.83
2018-06-07T11:36:31.008Z,21.88
2018-06-07T11:37:30.473Z,21.85
2018-06-07T11:38:30.547Z,21.85
2018-06-07T11:39:30.665Z,21.85
2018-06-07T11:40:30.717Z,21.89
2018-06-07T11:41:30.624Z,21.89
2018-06-07T11:42:30.471Z,21.87
2018-06-07T11:43:30.551Z,21.87
2018-06-07T11:44:30.596Z,21.89
2018-06-07T11:45:30.424Z,21.89
2018-06-07T11:46:30.651Z,21.91
2018-06-07T11:47:30.628Z,21.93
2018-06-07T11:48:30.460Z,21.89
2018-06-07T11:49:30.681Z,21.88
2018-06-07T11:50:30.492Z,21.87
2018-06-07T11:51:30.499Z,21.88
2018-06-07T11:52:30.738Z,21.89
2018-06-07T11:53:30.672Z,21.88
2018-06-07T11:54:30.446Z,21.87
2018-06-07T11:55:30.562Z,21.83
2018-06-07T11:56:30.595Z,21.83
2018-06-07T11:57:30.629Z,21.83
2018-06-07T11:58:30.494Z,21.82
2018-06-07T11:59:30.726Z,21.81
2018-06-07T12:00:30.593Z,21.83
2018-06-07T12:01:30.551Z,21.83
2018-06-07T12:02:30.550Z,21.8
2018-06-07T12:03:30.404Z,21.82
2018-06-07T12:04:30.661Z,21.82
2018-06-07T12:05:30.455Z,21.81
2018-06-07T12:06:30.784Z,21.8
2018-06-07T12:07:30.721Z,21.82
2018-06-07T12:08:30.733Z,21.81
2018-06-07T12:09:30.752Z,21.81
2018-06-07T12:10:30.730Z,21.79
2018-06-07T12:11:30.490Z,21.8
2018-06-07T12:12:31.064Z,21.82
2018-06-07T12:13:30.609Z,21.8
2018-06-07T12:14:30.535Z,21.8
2018-06-07T12:15:31.080Z,21.81
2018-06-07T12:16:30.570Z,21.8
2018-06-07T12:17:30.666Z,21.8
2018-06-07T12:18:30.466Z,21.81
2018-06-07T12:19:30.674Z,21.88
2018-06-07T12:20:30.929Z,21.88
2018-06-07T12:21:30.680Z,21.87
2018-06-07T12:22:30.979Z,21.88
2018-06-07T12:23:31.120Z,21.85
2018-06-07T12:24:30.424Z,21.83
2018-06-07T12:25:30.512Z,21.84
2018-06-07T12:26:30.764Z,21.83
2018-06-07T12:27:30.593Z,21.83
2018-06-07T12:28:30.734Z,21.82
2018-06-07T12:29:30.685Z,21.82
2018-06-07T12:30:30.498Z,21.81
2018-06-07T12:31:30.479Z,21.82
2018-06-07T12:32:30.556Z,21.84
2018-06-07T12:33:30.667Z,21.82
2018-06-07T12:34:30.699Z,21.82
2018-06-07T12:35:31.203Z,21.82
2018-06-07T12:36:30.429Z,21.8
2018-06-07T12:37:30.714Z,21.82
2018-06-07T12:38:30.734Z,21.83
2018-06-07T12:39:30.875Z,21.83
2018-06-07T12:40:31.528Z,21.83
2018-06-07T12:41:30.556Z,21.8
2018-06-07T12:42:30.614Z,21.82
2018-06-07T12:43:30.627Z,21.82
2018-06-07T12:44:30.537Z,21.81
2018-06-07T12:45:30.752Z,21.8
2018-06-07T12:46:30.429Z,21.81
2018-06-07T12:47:30.487Z,21.82
2018-06-07T12:48:30.512Z,21.81
2018-06-07T12:49:30.677Z,21.81
2018-06-07T12:50:30.449Z,21.79
2018-06-07T12:51:30.651Z,21.81
2018-06-07T12:52:30.575Z,21.81
2018-06-07T12:53:30.543Z,21.8
2018-06-07T12:54:30.565Z,21.81
2018-06-07T12:55:30.541Z,21.79
2018-06-07T12:56:30.453Z,21.8